TimeCDT,TemperatureF,Dew PointF,Humidity,Sea Level PressureIn,VisibilityMPH,Wind Direction,Wind SpeedMPH,Gust SpeedMPH,PrecipitationIn,Events,Conditions,WindDirDegrees,DateUTC
12:52 AM,34.0,28.0,79,29.91,10.0,Calm,Calm,-,N/A,,Clear,0,2013-04-26 05:52:00
1:52 AM,33.1,28.0,82,29.93,10.0,SW,5.8,-,N/A,,Clear,230,2013-04-26 06:52:00
2:52 AM,33.1,28.0,82,29.93,10.0,South,3.5,-,N/A,,Clear,190,2013-04-26 07:52:00
3:52 AM,32.0,27.0,82,29.93,10.0,SSW,5.8,-,N/A,,Clear,210,2013-04-26 08:52:00
4:52 AM,30.9,27.0,85,29.95,10.0,South,3.5,-,N/A,,Clear,190,2013-04-26 09:52:00
5:52 AM,33.1,28.9,85,29.96,10.0,South,5.8,-,N/A,,Clear,190,2013-04-26 10:52:00
6:52 AM,33.1,28.9,85,29.98,10.0,South,5.8,-,N/A,,Clear,190,2013-04-26 11:52:00
7:52 AM,37.9,32.0,79,30.00,10.0,South,3.5,-,N/A,,Clear,190,2013-04-26 12:52:00
8:52 AM,44.1,33.1,65,30.01,10.0,South,5.8,-,N/A,,Clear,190,2013-04-26 13:52:00
9:52 AM,50.0,33.1,52,30.02,10.0,SSW,9.2,-,N/A,,Clear,210,2013-04-26 14:52:00
10:52 AM,55.9,32.0,40,30.03,10.0,SSW,10.4,-,N/A,,Clear,200,2013-04-26 15:52:00
11:52 AM,62.1,35.1,37,30.02,10.0,SSW,8.1,-,N/A,,Clear,210,2013-04-26 16:52:00
12:52 PM,69.1,37.0,31,30.01,10.0,SW,9.2,18.4,N/A,,Clear,220,2013-04-26 17:52:00
1:52 PM,72.0,32.0,23,29.97,10.0,South,16.1,19.6,N/A,,Clear,190,2013-04-26 18:52:00
2:52 PM,73.9,27.0,18,29.96,10.0,SW,15.0,24.2,N/A,,Clear,230,2013-04-26 19:52:00
3:52 PM,75.0,28.9,18,29.95,10.0,WSW,19.6,27.6,N/A,,Clear,240,2013-04-26 20:52:00
4:52 PM,75.0,28.0,18,29.94,10.0,WSW,15.0,27.6,N/A,,Clear,250,2013-04-26 21:52:00
5:52 PM,73.0,27.0,18,29.94,10.0,West,11.5,-,N/A,,Clear,270,2013-04-26 22:52:00
6:52 PM,72.0,27.0,19,29.94,10.0,West,9.2,-,N/A,,Clear,270,2013-04-26 23:52:00
7:52 PM,71.1,28.0,20,29.91,10.0,WSW,11.5,-,N/A,,Clear,240,2013-04-27 00:52:00
8:52 PM,63.0,30.9,30,29.92,10.0,WSW,5.8,-,N/A,,Clear,250,2013-04-27 01:52:00
9:52 PM,57.0,32.0,39,29.94,10.0,SW,3.5,-,N/A,,Clear,230,2013-04-27 02:52:00
10:52 PM,53.1,33.1,47,29.93,10.0,SW,4.6,-,N/A,,Clear,230,2013-04-27 03:52:00
11:52 PM,50.0,33.1,52,29.91,10.0,Calm,Calm,-,N/A,,Clear,0,2013-04-27 04:52:00